This is the latest recevied weather packets stored in our database for station/object SALT. If no packets are shown the sender has not sent any weather packets the latest 10 day(s).
| Time | Temp. | Humidity | Pressure | Rain* | Wind** | Luminosity | Snow |
|---|---|---|---|---|---|---|---|
| 1778188103 | 14.44° C | 51% | 1019.6 hPa | 0 mm | - | - | - |
| 1778187501 | 13.89° C | 54% | 1019.6 hPa | 0 mm | - | - | - |
| 1778186895 | 14.44° C | 50% | 1019.7 hPa | 0 mm | - | - | - |
| 1778186294 | 13.89° C | 49% | 1019.7 hPa | 0 mm | - | - | - |
| 1778185691 | 13.89° C | 50% | 1019.7 hPa | 0 mm | - | - | - |
| 1778185088 | 13.89° C | 52% | 1019.7 hPa | 0 mm | - | - | - |
| 1778184486 | 13.33° C | 51% | 1019.7 hPa | 0 mm | - | - | - |
| 1778183883 | 13.89° C | 53% | 1019.8 hPa | 0 mm | - | - | - |
| 1778183277 | 13.33° C | 54% | 1019.8 hPa | 0 mm | - | - | - |
| 1778182674 | 13.33° C | 51% | 1019.9 hPa | 0 mm | - | - | - |
| 1778182072 | 12.78° C | 51% | 1019.9 hPa | 0 mm | - | - | - |
| 1778181470 | 12.78° C | 52% | 1019.8 hPa | 0 mm | - | - | - |
| 1778180866 | 12.78° C | 54% | 1019.7 hPa | 0 mm | - | - | - |
| 1778180265 | 12.78° C | 54% | 1019.7 hPa | 0 mm | - | - | - |
| 1778179660 | 12.22° C | 53% | 1019.7 hPa | 0 mm | - | - | - |
| 1778179057 | 11.67° C | 57% | 1019.7 hPa | 0 mm | - | - | - |
| 1778178454 | 12.22° C | 54% | 1019.5 hPa | 0 mm | - | - | - |
| 1778177852 | 13.33° C | 50% | 1019.5 hPa | 0 mm | - | - | - |
| 1778177248 | 13.33° C | 50% | 1019.5 hPa | 0 mm | - | - | - |
| 1778176646 | 13.33° C | 49% | 1019.4 hPa | 0 mm | - | - | - |
| 1778176041 | 13.33° C | 49% | 1019.5 hPa | 0 mm | - | - | - |
| 1778175439 | 12.78° C | 51% | 1019.5 hPa | 0 mm | - | - | - |
| 1778174836 | 12.78° C | 51% | 1019.4 hPa | 0 mm | - | - | - |
| 1778174234 | 11.67° C | 55% | 1019.6 hPa | 0 mm | - | - | - |
| 1778173631 | 11.67° C | 52% | 1019.6 hPa | 0 mm | - | - | - |
* Rain latest 24 hours (hover to see other rain measurements)
** Current wind speed in m/s (hover to see current wind gust speed)